sensor_id;sensor_type;location;lat;lon;timestamp;P1;durP1;ratioP1;P2;durP2;ratioP2
11996;SDS011;6058;48.704;9.474;2024-01-27T00:01:42;2.80;;;1.97;;
11996;SDS011;6058;48.704;9.474;2024-01-27T00:04:11;4.03;;;1.90;;
11996;SDS011;6058;48.704;9.474;2024-01-27T00:06:43;3.07;;;2.00;;
11996;SDS011;6058;48.704;9.474;2024-01-27T00:09:12;2.57;;;2.13;;
11996;SDS011;6058;48.704;9.474;2024-01-27T00:11:45;3.17;;;1.80;;
11996;SDS011;6058;48.704;9.474;2024-01-27T00:14:14;3.10;;;2.10;;
11996;SDS011;6058;48.704;9.474;2024-01-27T00:16:43;2.37;;;2.10;;
11996;SDS011;6058;48.704;9.474;2024-01-27T00:19:12;3.63;;;1.87;;
11996;SDS011;6058;48.704;9.474;2024-01-27T00:21:41;3.50;;;1.57;;
11996;SDS011;6058;48.704;9.474;2024-01-27T00:24:15;3.53;;;1.53;;
11996;SDS011;6058;48.704;9.474;2024-01-27T00:26:47;2.13;;;1.93;;
11996;SDS011;6058;48.704;9.474;2024-01-27T00:29:22;3.30;;;2.30;;
11996;SDS011;6058;48.704;9.474;2024-01-27T00:31:52;3.93;;;2.43;;
11996;SDS011;6058;48.704;9.474;2024-01-27T00:34:21;5.43;;;2.43;;
11996;SDS011;6058;48.704;9.474;2024-01-27T00:36:53;4.03;;;2.00;;
11996;SDS011;6058;48.704;9.474;2024-01-27T00:39:23;2.13;;;1.90;;
11996;SDS011;6058;48.704;9.474;2024-01-27T00:41:52;2.27;;;1.70;;
11996;SDS011;6058;48.704;9.474;2024-01-27T00:44:25;2.80;;;2.13;;
11996;SDS011;6058;48.704;9.474;2024-01-27T00:46:56;2.10;;;1.90;;
11996;SDS011;6058;48.704;9.474;2024-01-27T00:49:25;3.10;;;1.90;;
11996;SDS011;6058;48.704;9.474;2024-01-27T00:51:54;1.67;;;1.57;;
11996;SDS011;6058;48.704;9.474;2024-01-27T00:56:54;2.93;;;2.43;;
11996;SDS011;6058;48.704;9.474;2024-01-27T00:59:29;4.37;;;1.93;;
11996;SDS011;6058;48.704;9.474;2024-01-27T01:02:06;4.90;;;2.40;;
11996;SDS011;6058;48.704;9.474;2024-01-27T01:04:36;3.37;;;1.80;;
11996;SDS011;6058;48.704;9.474;2024-01-27T01:07:16;2.13;;;2.00;;
11996;SDS011;6058;48.704;9.474;2024-01-27T01:09:46;2.63;;;1.70;;
11996;SDS011;6058;48.704;9.474;2024-01-27T01:12:21;2.03;;;1.60;;
11996;SDS011;6058;48.704;9.474;2024-01-27T01:14:54;2.07;;;1.80;;
11996;SDS011;6058;48.704;9.474;2024-01-27T01:17:27;3.27;;;1.97;;
11996;SDS011;6058;48.704;9.474;2024-01-27T01:19:57;3.13;;;1.90;;
11996;SDS011;6058;48.704;9.474;2024-01-27T01:22:33;3.43;;;2.20;;
11996;SDS011;6058;48.704;9.474;2024-01-27T01:25:01;3.13;;;1.80;;
11996;SDS011;6058;48.704;9.474;2024-01-27T01:27:31;3.47;;;1.70;;
11996;SDS011;6058;48.704;9.474;2024-01-27T01:30:01;5.60;;;1.87;;
11996;SDS011;6058;48.704;9.474;2024-01-27T01:32:32;4.40;;;1.83;;
11996;SDS011;6058;48.704;9.474;2024-01-27T01:35:02;4.93;;;1.77;;
11996;SDS011;6058;48.704;9.474;2024-01-27T01:37:33;2.50;;;1.63;;
11996;SDS011;6058;48.704;9.474;2024-01-27T01:40:02;4.13;;;1.93;;
11996;SDS011;6058;48.704;9.474;2024-01-27T01:42:33;3.17;;;2.10;;
11996;SDS011;6058;48.704;9.474;2024-01-27T01:45:03;2.50;;;1.73;;
11996;SDS011;6058;48.704;9.474;2024-01-27T01:47:35;2.40;;;1.60;;
11996;SDS011;6058;48.704;9.474;2024-01-27T01:50:04;2.80;;;2.10;;
11996;SDS011;6058;48.704;9.474;2024-01-27T01:52:36;2.27;;;1.97;;
11996;SDS011;6058;48.704;9.474;2024-01-27T02:00:10;3.47;;;1.63;;
11996;SDS011;6058;48.704;9.474;2024-01-27T02:02:45;1.87;;;1.77;;
11996;SDS011;6058;48.704;9.474;2024-01-27T02:05:14;2.33;;;1.90;;
11996;SDS011;6058;48.704;9.474;2024-01-27T02:07:43;3.77;;;2.17;;
11996;SDS011;6058;48.704;9.474;2024-01-27T02:10:13;2.87;;;1.83;;
11996;SDS011;6058;48.704;9.474;2024-01-27T02:12:46;3.33;;;1.87;;
11996;SDS011;6058;48.704;9.474;2024-01-27T02:15:16;1.70;;;1.60;;
11996;SDS011;6058;48.704;9.474;2024-01-27T02:17:49;3.63;;;1.53;;
11996;SDS011;6058;48.704;9.474;2024-01-27T02:20:21;2.53;;;1.70;;
11996;SDS011;6058;48.704;9.474;2024-01-27T02:30:55;1.20;;;1.17;;
11996;SDS011;6058;48.704;9.474;2024-01-27T02:33:37;2.33;;;1.87;;
11996;SDS011;6058;48.704;9.474;2024-01-27T02:41:22;2.23;;;1.80;;
11996;SDS011;6058;48.704;9.474;2024-01-27T02:43:59;4.17;;;2.03;;
11996;SDS011;6058;48.704;9.474;2024-01-27T02:51:48;3.60;;;2.47;;
11996;SDS011;6058;48.704;9.474;2024-01-27T02:54:30;2.33;;;1.70;;
11996;SDS011;6058;48.704;9.474;2024-01-27T02:57:13;2.10;;;1.80;;
11996;SDS011;6058;48.704;9.474;2024-01-27T02:59:48;2.53;;;1.90;;
11996;SDS011;6058;48.704;9.474;2024-01-27T03:02:23;2.73;;;1.70;;
11996;SDS011;6058;48.704;9.474;2024-01-27T03:04:59;2.07;;;1.57;;
11996;SDS011;6058;48.704;9.474;2024-01-27T03:07:38;3.43;;;2.20;;
11996;SDS011;6058;48.704;9.474;2024-01-27T03:10:18;4.73;;;2.10;;
11996;SDS011;6058;48.704;9.474;2024-01-27T03:12:55;2.73;;;1.80;;
11996;SDS011;6058;48.704;9.474;2024-01-27T03:15:37;3.57;;;1.80;;
11996;SDS011;6058;48.704;9.474;2024-01-27T03:18:18;2.53;;;2.07;;
11996;SDS011;6058;48.704;9.474;2024-01-27T03:28:35;4.03;;;1.97;;
11996;SDS011;6058;48.704;9.474;2024-01-27T03:31:06;5.10;;;1.80;;
11996;SDS011;6058;48.704;9.474;2024-01-27T03:33:43;4.13;;;2.10;;
11996;SDS011;6058;48.704;9.474;2024-01-27T03:36:15;2.17;;;1.67;;
11996;SDS011;6058;48.704;9.474;2024-01-27T03:38:47;2.30;;;1.97;;
11996;SDS011;6058;48.704;9.474;2024-01-27T03:41:23;3.17;;;1.90;;
11996;SDS011;6058;48.704;9.474;2024-01-27T03:54:19;2.40;;;1.37;;
11996;SDS011;6058;48.704;9.474;2024-01-27T03:59:34;2.80;;;1.67;;
11996;SDS011;6058;48.704;9.474;2024-01-27T04:02:07;3.33;;;2.33;;
11996;SDS011;6058;48.704;9.474;2024-01-27T04:04:41;2.07;;;1.73;;
11996;SDS011;6058;48.704;9.474;2024-01-27T04:07:15;4.40;;;2.23;;
11996;SDS011;6058;48.704;9.474;2024-01-27T04:09:52;2.50;;;2.10;;
11996;SDS011;6058;48.704;9.474;2024-01-27T04:12:26;2.33;;;2.13;;
11996;SDS011;6058;48.704;9.474;2024-01-27T04:14:56;3.60;;;2.20;;
11996;SDS011;6058;48.704;9.474;2024-01-27T04:17:35;2.40;;;1.67;;
11996;SDS011;6058;48.704;9.474;2024-01-27T04:20:14;3.80;;;2.10;;
11996;SDS011;6058;48.704;9.474;2024-01-27T04:22:46;4.33;;;2.20;;
11996;SDS011;6058;48.704;9.474;2024-01-27T04:25:17;2.53;;;2.23;;
11996;SDS011;6058;48.704;9.474;2024-01-27T04:27:51;3.77;;;2.00;;
11996;SDS011;6058;48.704;9.474;2024-01-27T04:30:21;2.50;;;2.10;;
11996;SDS011;6058;48.704;9.474;2024-01-27T04:32:59;1.97;;;1.77;;
11996;SDS011;6058;48.704;9.474;2024-01-27T04:35:30;3.00;;;1.67;;
11996;SDS011;6058;48.704;9.474;2024-01-27T04:38:01;7.00;;;2.27;;
11996;SDS011;6058;48.704;9.474;2024-01-27T04:40:44;4.17;;;2.30;;
11996;SDS011;6058;48.704;9.474;2024-01-27T04:43:21;4.30;;;1.97;;
11996;SDS011;6058;48.704;9.474;2024-01-27T04:45:55;2.80;;;1.90;;
11996;SDS011;6058;48.704;9.474;2024-01-27T04:48:30;4.47;;;2.23;;
11996;SDS011;6058;48.704;9.474;2024-01-27T04:51:04;3.13;;;2.17;;
11996;SDS011;6058;48.704;9.474;2024-01-27T04:53:34;2.20;;;1.97;;
11996;SDS011;6058;48.704;9.474;2024-01-27T04:56:08;2.17;;;2.00;;
11996;SDS011;6058;48.704;9.474;2024-01-27T04:58:45;2.23;;;1.90;;
11996;SDS011;6058;48.704;9.474;2024-01-27T05:01:29;3.70;;;2.00;;
11996;SDS011;6058;48.704;9.474;2024-01-27T05:04:07;4.53;;;2.00;;
11996;SDS011;6058;48.704;9.474;2024-01-27T05:06:37;3.57;;;2.50;;
11996;SDS011;6058;48.704;9.474;2024-01-27T05:09:07;4.53;;;2.67;;
11996;SDS011;6058;48.704;9.474;2024-01-27T05:11:38;3.53;;;2.20;;
11996;SDS011;6058;48.704;9.474;2024-01-27T05:14:08;4.80;;;2.50;;
11996;SDS011;6058;48.704;9.474;2024-01-27T05:16:41;2.60;;;2.00;;
11996;SDS011;6058;48.704;9.474;2024-01-27T05:19:11;4.50;;;2.50;;
11996;SDS011;6058;48.704;9.474;2024-01-27T05:21:40;3.60;;;2.20;;
11996;SDS011;6058;48.704;9.474;2024-01-27T05:24:09;3.27;;;2.17;;
11996;SDS011;6058;48.704;9.474;2024-01-27T05:26:43;3.97;;;2.17;;
11996;SDS011;6058;48.704;9.474;2024-01-27T05:29:11;4.53;;;2.13;;
11996;SDS011;6058;48.704;9.474;2024-01-27T05:31:40;2.93;;;2.10;;
11996;SDS011;6058;48.704;9.474;2024-01-27T05:34:09;2.90;;;2.00;;
11996;SDS011;6058;48.704;9.474;2024-01-27T05:36:40;2.10;;;1.90;;
11996;SDS011;6058;48.704;9.474;2024-01-27T05:39:10;4.40;;;2.10;;
11996;SDS011;6058;48.704;9.474;2024-01-27T05:41:39;2.37;;;1.97;;
11996;SDS011;6058;48.704;9.474;2024-01-27T05:44:10;2.90;;;1.57;;
11996;SDS011;6058;48.704;9.474;2024-01-27T05:46:39;3.20;;;2.10;;
11996;SDS011;6058;48.704;9.474;2024-01-27T05:49:13;2.40;;;1.80;;
11996;SDS011;6058;48.704;9.474;2024-01-27T05:51:42;5.80;;;2.27;;
11996;SDS011;6058;48.704;9.474;2024-01-27T05:54:10;2.40;;;2.00;;
11996;SDS011;6058;48.704;9.474;2024-01-27T05:56:42;3.03;;;2.50;;
11996;SDS011;6058;48.704;9.474;2024-01-27T05:59:18;2.37;;;1.93;;
11996;SDS011;6058;48.704;9.474;2024-01-27T06:01:46;2.63;;;2.23;;
11996;SDS011;6058;48.704;9.474;2024-01-27T06:04:14;2.57;;;2.17;;
11996;SDS011;6058;48.704;9.474;2024-01-27T06:06:56;2.97;;;2.20;;
11996;SDS011;6058;48.704;9.474;2024-01-27T06:09:25;5.87;;;2.30;;
11996;SDS011;6058;48.704;9.474;2024-01-27T06:11:53;2.63;;;2.43;;
11996;SDS011;6058;48.704;9.474;2024-01-27T06:14:27;3.17;;;2.40;;
11996;SDS011;6058;48.704;9.474;2024-01-27T06:16:58;2.33;;;2.07;;
11996;SDS011;6058;48.704;9.474;2024-01-27T06:19:27;4.20;;;2.50;;
11996;SDS011;6058;48.704;9.474;2024-01-27T06:21:57;2.93;;;2.23;;
11996;SDS011;6058;48.704;9.474;2024-01-27T06:24:27;4.23;;;2.57;;
11996;SDS011;6058;48.704;9.474;2024-01-27T06:26:59;5.00;;;2.00;;
11996;SDS011;6058;48.704;9.474;2024-01-27T06:29:31;3.93;;;2.47;;
11996;SDS011;6058;48.704;9.474;2024-01-27T06:32:01;3.63;;;2.73;;
11996;SDS011;6058;48.704;9.474;2024-01-27T06:34:30;3.23;;;2.37;;
11996;SDS011;6058;48.704;9.474;2024-01-27T06:37:03;2.23;;;2.03;;
11996;SDS011;6058;48.704;9.474;2024-01-27T06:39:32;3.40;;;2.00;;
11996;SDS011;6058;48.704;9.474;2024-01-27T06:42:05;5.07;;;2.40;;
11996;SDS011;6058;48.704;9.474;2024-01-27T06:44:35;3.53;;;2.57;;
11996;SDS011;6058;48.704;9.474;2024-01-27T06:47:06;5.03;;;2.90;;
11996;SDS011;6058;48.704;9.474;2024-01-27T06:49:34;2.70;;;2.10;;
11996;SDS011;6058;48.704;9.474;2024-01-27T06:52:03;2.80;;;2.60;;
11996;SDS011;6058;48.704;9.474;2024-01-27T06:54:35;3.40;;;2.57;;
11996;SDS011;6058;48.704;9.474;2024-01-27T06:57:07;2.37;;;2.17;;
11996;SDS011;6058;48.704;9.474;2024-01-27T06:59:50;5.57;;;2.47;;
11996;SDS011;6058;48.704;9.474;2024-01-27T07:02:28;4.93;;;2.17;;
11996;SDS011;6058;48.704;9.474;2024-01-27T07:05:04;2.83;;;2.03;;
11996;SDS011;6058;48.704;9.474;2024-01-27T07:07:33;3.13;;;2.20;;
11996;SDS011;6058;48.704;9.474;2024-01-27T07:10:01;4.27;;;2.90;;
11996;SDS011;6058;48.704;9.474;2024-01-27T07:12:30;2.30;;;2.10;;
11996;SDS011;6058;48.704;9.474;2024-01-27T07:15:04;3.40;;;2.90;;
11996;SDS011;6058;48.704;9.474;2024-01-27T07:17:38;3.83;;;3.20;;
11996;SDS011;6058;48.704;9.474;2024-01-27T07:22:41;4.20;;;3.00;;
11996;SDS011;6058;48.704;9.474;2024-01-27T07:25:14;2.90;;;2.33;;
11996;SDS011;6058;48.704;9.474;2024-01-27T07:27:42;3.93;;;2.70;;
11996;SDS011;6058;48.704;9.474;2024-01-27T07:30:14;5.03;;;3.30;;
11996;SDS011;6058;48.704;9.474;2024-01-27T07:32:41;4.03;;;3.20;;
11996;SDS011;6058;48.704;9.474;2024-01-27T07:35:10;5.07;;;3.00;;
11996;SDS011;6058;48.704;9.474;2024-01-27T07:37:42;5.20;;;2.50;;
11996;SDS011;6058;48.704;9.474;2024-01-27T07:40:13;3.30;;;2.67;;
11996;SDS011;6058;48.704;9.474;2024-01-27T07:42:45;3.97;;;2.70;;
11996;SDS011;6058;48.704;9.474;2024-01-27T07:45:26;4.23;;;2.60;;
11996;SDS011;6058;48.704;9.474;2024-01-27T07:47:56;3.63;;;2.57;;
11996;SDS011;6058;48.704;9.474;2024-01-27T07:50:29;2.53;;;2.10;;
11996;SDS011;6058;48.704;9.474;2024-01-27T07:53:18;2.80;;;2.50;;
11996;SDS011;6058;48.704;9.474;2024-01-27T07:58:28;5.17;;;2.70;;
11996;SDS011;6058;48.704;9.474;2024-01-27T08:01:07;4.63;;;2.90;;
11996;SDS011;6058;48.704;9.474;2024-01-27T08:03:38;3.80;;;2.63;;
11996;SDS011;6058;48.704;9.474;2024-01-27T08:06:14;3.63;;;2.63;;
11996;SDS011;6058;48.704;9.474;2024-01-27T08:08:46;5.90;;;3.00;;
11996;SDS011;6058;48.704;9.474;2024-01-27T08:11:20;3.90;;;2.53;;
11996;SDS011;6058;48.704;9.474;2024-01-27T08:13:54;2.97;;;2.23;;
11996;SDS011;6058;48.704;9.474;2024-01-27T08:16:23;2.97;;;2.67;;
11996;SDS011;6058;48.704;9.474;2024-01-27T08:18:51;2.93;;;2.73;;
11996;SDS011;6058;48.704;9.474;2024-01-27T08:21:18;4.57;;;3.20;;
11996;SDS011;6058;48.704;9.474;2024-01-27T08:23:45;3.20;;;2.53;;
11996;SDS011;6058;48.704;9.474;2024-01-27T08:26:13;3.33;;;2.60;;
11996;SDS011;6058;48.704;9.474;2024-01-27T08:28:43;4.13;;;3.17;;
11996;SDS011;6058;48.704;9.474;2024-01-27T08:31:10;3.50;;;2.97;;
11996;SDS011;6058;48.704;9.474;2024-01-27T08:33:39;7.70;;;4.27;;
11996;SDS011;6058;48.704;9.474;2024-01-27T08:36:06;7.77;;;3.97;;
11996;SDS011;6058;48.704;9.474;2024-01-27T08:38:34;3.67;;;3.37;;
11996;SDS011;6058;48.704;9.474;2024-01-27T08:41:01;3.57;;;2.97;;
11996;SDS011;6058;48.704;9.474;2024-01-27T08:43:28;5.23;;;3.27;;
11996;SDS011;6058;48.704;9.474;2024-01-27T08:45:55;6.20;;;3.33;;
11996;SDS011;6058;48.704;9.474;2024-01-27T08:48:22;3.30;;;2.77;;
11996;SDS011;6058;48.704;9.474;2024-01-27T08:50:51;5.30;;;3.27;;
11996;SDS011;6058;48.704;9.474;2024-01-27T08:53:18;7.03;;;3.70;;
11996;SDS011;6058;48.704;9.474;2024-01-27T08:55:45;4.33;;;3.33;;
11996;SDS011;6058;48.704;9.474;2024-01-27T08:58:12;8.00;;;4.97;;
11996;SDS011;6058;48.704;9.474;2024-01-27T09:00:40;5.20;;;3.53;;
11996;SDS011;6058;48.704;9.474;2024-01-27T09:03:07;3.57;;;3.20;;
11996;SDS011;6058;48.704;9.474;2024-01-27T09:05:34;7.40;;;3.87;;
11996;SDS011;6058;48.704;9.474;2024-01-27T09:08:03;7.97;;;4.03;;
11996;SDS011;6058;48.704;9.474;2024-01-27T09:10:32;7.10;;;5.13;;
11996;SDS011;6058;48.704;9.474;2024-01-27T09:12:59;8.23;;;3.97;;
11996;SDS011;6058;48.704;9.474;2024-01-27T09:15:27;7.10;;;4.13;;
11996;SDS011;6058;48.704;9.474;2024-01-27T09:17:55;7.73;;;4.80;;
11996;SDS011;6058;48.704;9.474;2024-01-27T09:20:22;8.10;;;4.30;;
11996;SDS011;6058;48.704;9.474;2024-01-27T09:22:49;8.27;;;4.67;;
11996;SDS011;6058;48.704;9.474;2024-01-27T09:25:18;4.93;;;3.77;;
11996;SDS011;6058;48.704;9.474;2024-01-27T09:27:46;5.33;;;4.00;;
11996;SDS011;6058;48.704;9.474;2024-01-27T09:30:14;6.17;;;4.00;;
11996;SDS011;6058;48.704;9.474;2024-01-27T09:32:41;4.93;;;3.90;;
11996;SDS011;6058;48.704;9.474;2024-01-27T09:35:08;4.90;;;3.93;;
11996;SDS011;6058;48.704;9.474;2024-01-27T09:37:35;6.53;;;3.73;;
11996;SDS011;6058;48.704;9.474;2024-01-27T09:40:03;7.50;;;4.10;;
11996;SDS011;6058;48.704;9.474;2024-01-27T09:42:32;4.50;;;3.93;;
11996;SDS011;6058;48.704;9.474;2024-01-27T09:45:00;5.83;;;4.27;;
11996;SDS011;6058;48.704;9.474;2024-01-27T09:47:29;7.60;;;3.90;;
11996;SDS011;6058;48.704;9.474;2024-01-27T09:49:56;5.40;;;3.93;;
11996;SDS011;6058;48.704;9.474;2024-01-27T09:52:24;5.93;;;4.33;;
11996;SDS011;6058;48.704;9.474;2024-01-27T09:54:51;5.30;;;3.90;;
11996;SDS011;6058;48.704;9.474;2024-01-27T09:57:19;7.53;;;4.53;;
11996;SDS011;6058;48.704;9.474;2024-01-27T09:59:48;4.73;;;3.77;;
11996;SDS011;6058;48.704;9.474;2024-01-27T10:02:16;5.97;;;3.97;;
11996;SDS011;6058;48.704;9.474;2024-01-27T10:04:44;6.57;;;4.00;;
11996;SDS011;6058;48.704;9.474;2024-01-27T10:07:13;7.17;;;4.87;;
11996;SDS011;6058;48.704;9.474;2024-01-27T10:09:41;6.93;;;4.43;;
11996;SDS011;6058;48.704;9.474;2024-01-27T10:12:08;4.57;;;3.93;;
11996;SDS011;6058;48.704;9.474;2024-01-27T10:14:39;9.13;;;4.73;;
11996;SDS011;6058;48.704;9.474;2024-01-27T10:17:10;6.63;;;3.87;;
11996;SDS011;6058;48.704;9.474;2024-01-27T10:19:37;7.63;;;3.80;;
11996;SDS011;6058;48.704;9.474;2024-01-27T10:22:04;7.03;;;4.10;;
11996;SDS011;6058;48.704;9.474;2024-01-27T10:24:31;4.73;;;3.83;;
11996;SDS011;6058;48.704;9.474;2024-01-27T10:27:00;5.03;;;3.97;;
11996;SDS011;6058;48.704;9.474;2024-01-27T10:29:28;5.77;;;3.93;;
11996;SDS011;6058;48.704;9.474;2024-01-27T10:31:55;7.93;;;4.70;;
11996;SDS011;6058;48.704;9.474;2024-01-27T10:34:24;7.73;;;4.53;;
11996;SDS011;6058;48.704;9.474;2024-01-27T10:36:51;6.40;;;4.40;;
11996;SDS011;6058;48.704;9.474;2024-01-27T10:39:19;5.57;;;4.37;;
11996;SDS011;6058;48.704;9.474;2024-01-27T10:41:47;5.83;;;3.73;;
11996;SDS011;6058;48.704;9.474;2024-01-27T10:44:16;4.03;;;3.47;;
11996;SDS011;6058;48.704;9.474;2024-01-27T10:46:44;5.93;;;3.87;;
11996;SDS011;6058;48.704;9.474;2024-01-27T10:49:12;5.63;;;3.17;;
11996;SDS011;6058;48.704;9.474;2024-01-27T10:51:43;5.60;;;3.73;;
11996;SDS011;6058;48.704;9.474;2024-01-27T10:54:14;7.80;;;3.73;;
11996;SDS011;6058;48.704;9.474;2024-01-27T10:56:42;6.90;;;3.77;;
11996;SDS011;6058;48.704;9.474;2024-01-27T10:59:09;8.33;;;4.03;;
11996;SDS011;6058;48.704;9.474;2024-01-27T11:01:38;4.73;;;3.70;;
11996;SDS011;6058;48.704;9.474;2024-01-27T11:04:07;6.33;;;3.93;;
11996;SDS011;6058;48.704;9.474;2024-01-27T11:06:35;5.90;;;3.90;;
11996;SDS011;6058;48.704;9.474;2024-01-27T11:09:05;3.77;;;2.80;;
11996;SDS011;6058;48.704;9.474;2024-01-27T11:11:33;8.60;;;3.13;;
11996;SDS011;6058;48.704;9.474;2024-01-27T11:14:01;5.33;;;4.10;;
11996;SDS011;6058;48.704;9.474;2024-01-27T11:16:28;5.80;;;3.43;;
11996;SDS011;6058;48.704;9.474;2024-01-27T11:18:55;7.40;;;3.77;;
11996;SDS011;6058;48.704;9.474;2024-01-27T11:21:22;6.87;;;3.40;;
11996;SDS011;6058;48.704;9.474;2024-01-27T11:23:49;7.10;;;3.70;;
11996;SDS011;6058;48.704;9.474;2024-01-27T11:26:19;6.30;;;3.90;;
11996;SDS011;6058;48.704;9.474;2024-01-27T11:28:47;4.60;;;3.40;;
11996;SDS011;6058;48.704;9.474;2024-01-27T11:31:16;8.23;;;4.20;;
11996;SDS011;6058;48.704;9.474;2024-01-27T11:33:44;6.77;;;4.20;;
11996;SDS011;6058;48.704;9.474;2024-01-27T11:36:17;7.63;;;4.40;;
11996;SDS011;6058;48.704;9.474;2024-01-27T11:38:45;10.27;;;5.00;;
11996;SDS011;6058;48.704;9.474;2024-01-27T11:41:14;5.77;;;4.10;;
11996;SDS011;6058;48.704;9.474;2024-01-27T11:43:52;9.60;;;5.07;;
11996;SDS011;6058;48.704;9.474;2024-01-27T11:46:19;9.33;;;4.70;;
11996;SDS011;6058;48.704;9.474;2024-01-27T11:48:46;8.60;;;4.10;;
11996;SDS011;6058;48.704;9.474;2024-01-27T11:51:13;8.77;;;3.87;;
11996;SDS011;6058;48.704;9.474;2024-01-27T11:53:41;7.43;;;4.07;;
11996;SDS011;6058;48.704;9.474;2024-01-27T11:56:10;5.37;;;3.70;;
11996;SDS011;6058;48.704;9.474;2024-01-27T11:58:37;5.97;;;3.13;;
11996;SDS011;6058;48.704;9.474;2024-01-27T12:01:19;5.90;;;2.73;;
11996;SDS011;6058;48.704;9.474;2024-01-27T12:03:47;5.43;;;3.00;;
11996;SDS011;6058;48.704;9.474;2024-01-27T12:06:14;9.30;;;3.33;;
11996;SDS011;6058;48.704;9.474;2024-01-27T12:08:41;6.73;;;3.20;;
11996;SDS011;6058;48.704;9.474;2024-01-27T12:11:11;5.03;;;3.00;;
11996;SDS011;6058;48.704;9.474;2024-01-27T12:13:39;5.00;;;2.77;;
11996;SDS011;6058;48.704;9.474;2024-01-27T12:16:06;4.40;;;3.20;;
11996;SDS011;6058;48.704;9.474;2024-01-27T12:18:35;4.10;;;2.70;;
11996;SDS011;6058;48.704;9.474;2024-01-27T12:21:02;4.87;;;2.97;;
11996;SDS011;6058;48.704;9.474;2024-01-27T12:23:30;4.97;;;2.53;;
11996;SDS011;6058;48.704;9.474;2024-01-27T12:25:57;5.67;;;2.63;;
11996;SDS011;6058;48.704;9.474;2024-01-27T12:28:24;4.07;;;2.67;;
11996;SDS011;6058;48.704;9.474;2024-01-27T12:30:51;5.90;;;2.37;;
11996;SDS011;6058;48.704;9.474;2024-01-27T12:33:19;4.77;;;2.70;;
11996;SDS011;6058;48.704;9.474;2024-01-27T12:35:50;7.20;;;2.67;;
11996;SDS011;6058;48.704;9.474;2024-01-27T12:38:34;4.90;;;2.60;;
11996;SDS011;6058;48.704;9.474;2024-01-27T12:41:09;5.17;;;2.30;;
11996;SDS011;6058;48.704;9.474;2024-01-27T12:46:23;5.83;;;2.37;;
11996;SDS011;6058;48.704;9.474;2024-01-27T12:48:50;6.03;;;2.83;;
11996;SDS011;6058;48.704;9.474;2024-01-27T12:51:19;5.83;;;2.43;;
11996;SDS011;6058;48.704;9.474;2024-01-27T12:53:47;5.87;;;2.20;;
11996;SDS011;6058;48.704;9.474;2024-01-27T12:56:14;4.00;;;2.43;;
11996;SDS011;6058;48.704;9.474;2024-01-27T12:58:41;5.73;;;2.37;;
11996;SDS011;6058;48.704;9.474;2024-01-27T13:01:08;4.20;;;2.50;;
11996;SDS011;6058;48.704;9.474;2024-01-27T13:03:36;5.30;;;2.53;;
11996;SDS011;6058;48.704;9.474;2024-01-27T13:06:03;7.30;;;2.20;;
11996;SDS011;6058;48.704;9.474;2024-01-27T13:08:32;5.27;;;2.67;;
11996;SDS011;6058;48.704;9.474;2024-01-27T13:10:59;3.57;;;2.40;;
11996;SDS011;6058;48.704;9.474;2024-01-27T13:13:27;6.70;;;2.20;;
11996;SDS011;6058;48.704;9.474;2024-01-27T13:15:55;2.53;;;2.00;;
11996;SDS011;6058;48.704;9.474;2024-01-27T13:18:23;3.63;;;1.83;;
11996;SDS011;6058;48.704;9.474;2024-01-27T13:20:50;2.93;;;2.57;;
11996;SDS011;6058;48.704;9.474;2024-01-27T13:23:17;8.57;;;2.97;;
11996;SDS011;6058;48.704;9.474;2024-01-27T13:25:46;4.00;;;2.70;;
11996;SDS011;6058;48.704;9.474;2024-01-27T13:28:13;5.13;;;2.40;;
11996;SDS011;6058;48.704;9.474;2024-01-27T13:30:40;5.73;;;3.30;;
11996;SDS011;6058;48.704;9.474;2024-01-27T13:33:08;4.97;;;2.50;;
11996;SDS011;6058;48.704;9.474;2024-01-27T13:35:36;7.13;;;3.00;;
11996;SDS011;6058;48.704;9.474;2024-01-27T13:38:05;5.90;;;3.07;;
11996;SDS011;6058;48.704;9.474;2024-01-27T13:40:32;8.10;;;2.70;;
11996;SDS011;6058;48.704;9.474;2024-01-27T13:43:00;6.77;;;2.70;;
11996;SDS011;6058;48.704;9.474;2024-01-27T13:45:27;5.03;;;2.30;;
11996;SDS011;6058;48.704;9.474;2024-01-27T13:47:54;4.93;;;2.23;;
11996;SDS011;6058;48.704;9.474;2024-01-27T13:50:22;3.97;;;2.33;;
11996;SDS011;6058;48.704;9.474;2024-01-27T13:52:50;2.40;;;2.20;;
11996;SDS011;6058;48.704;9.474;2024-01-27T13:55:17;7.97;;;2.80;;
11996;SDS011;6058;48.704;9.474;2024-01-27T13:57:46;5.87;;;2.13;;
11996;SDS011;6058;48.704;9.474;2024-01-27T14:00:15;3.47;;;2.30;;
11996;SDS011;6058;48.704;9.474;2024-01-27T14:02:42;4.53;;;2.03;;
11996;SDS011;6058;48.704;9.474;2024-01-27T14:05:10;4.27;;;2.10;;
11996;SDS011;6058;48.704;9.474;2024-01-27T14:07:37;5.57;;;2.60;;
11996;SDS011;6058;48.704;9.474;2024-01-27T14:10:04;2.47;;;2.20;;
11996;SDS011;6058;48.704;9.474;2024-01-27T14:12:31;4.17;;;2.10;;
11996;SDS011;6058;48.704;9.474;2024-01-27T14:15:02;3.40;;;1.73;;
11996;SDS011;6058;48.704;9.474;2024-01-27T14:17:33;4.60;;;1.70;;
11996;SDS011;6058;48.704;9.474;2024-01-27T14:20:01;3.00;;;1.83;;
11996;SDS011;6058;48.704;9.474;2024-01-27T14:22:28;6.40;;;2.50;;
11996;SDS011;6058;48.704;9.474;2024-01-27T14:24:55;10.00;;;2.10;;
11996;SDS011;6058;48.704;9.474;2024-01-27T14:27:23;4.23;;;1.80;;
11996;SDS011;6058;48.704;9.474;2024-01-27T14:29:51;3.83;;;1.50;;
11996;SDS011;6058;48.704;9.474;2024-01-27T14:32:19;4.37;;;1.60;;
11996;SDS011;6058;48.704;9.474;2024-01-27T14:34:48;2.73;;;1.73;;
11996;SDS011;6058;48.704;9.474;2024-01-27T14:37:15;1.93;;;1.43;;
11996;SDS011;6058;48.704;9.474;2024-01-27T14:39:42;3.97;;;1.83;;
11996;SDS011;6058;48.704;9.474;2024-01-27T14:42:11;2.70;;;1.53;;
11996;SDS011;6058;48.704;9.474;2024-01-27T14:44:38;3.73;;;1.53;;
11996;SDS011;6058;48.704;9.474;2024-01-27T14:47:05;4.93;;;2.97;;
11996;SDS011;6058;48.704;9.474;2024-01-27T14:49:33;5.20;;;1.43;;
11996;SDS011;6058;48.704;9.474;2024-01-27T14:52:03;2.87;;;1.60;;
11996;SDS011;6058;48.704;9.474;2024-01-27T14:54:30;7.40;;;2.80;;
11996;SDS011;6058;48.704;9.474;2024-01-27T14:56:57;2.90;;;1.57;;
11996;SDS011;6058;48.704;9.474;2024-01-27T14:59:25;2.37;;;1.77;;
11996;SDS011;6058;48.704;9.474;2024-01-27T15:01:52;6.30;;;1.80;;
11996;SDS011;6058;48.704;9.474;2024-01-27T15:04:20;4.83;;;1.60;;
11996;SDS011;6058;48.704;9.474;2024-01-27T15:06:50;5.03;;;2.00;;
11996;SDS011;6058;48.704;9.474;2024-01-27T15:09:19;5.30;;;1.33;;
11996;SDS011;6058;48.704;9.474;2024-01-27T15:11:46;3.00;;;1.60;;
11996;SDS011;6058;48.704;9.474;2024-01-27T15:14:13;2.87;;;1.63;;
11996;SDS011;6058;48.704;9.474;2024-01-27T15:16:40;5.37;;;1.73;;
11996;SDS011;6058;48.704;9.474;2024-01-27T15:19:08;3.67;;;1.90;;
11996;SDS011;6058;48.704;9.474;2024-01-27T15:21:35;6.07;;;2.27;;
11996;SDS011;6058;48.704;9.474;2024-01-27T15:24:02;4.23;;;1.67;;
11996;SDS011;6058;48.704;9.474;2024-01-27T15:26:31;2.60;;;1.37;;
11996;SDS011;6058;48.704;9.474;2024-01-27T15:28:58;3.50;;;1.40;;
11996;SDS011;6058;48.704;9.474;2024-01-27T15:31:26;3.50;;;1.80;;
11996;SDS011;6058;48.704;9.474;2024-01-27T15:33:53;3.77;;;1.70;;
11996;SDS011;6058;48.704;9.474;2024-01-27T15:36:20;5.73;;;1.33;;
11996;SDS011;6058;48.704;9.474;2024-01-27T15:38:47;3.43;;;1.60;;
11996;SDS011;6058;48.704;9.474;2024-01-27T15:41:14;1.70;;;1.40;;
11996;SDS011;6058;48.704;9.474;2024-01-27T15:43:45;4.17;;;1.80;;
11996;SDS011;6058;48.704;9.474;2024-01-27T15:46:14;2.27;;;1.60;;
11996;SDS011;6058;48.704;9.474;2024-01-27T15:48:45;3.80;;;1.73;;
11996;SDS011;6058;48.704;9.474;2024-01-27T15:51:12;2.27;;;1.73;;
11996;SDS011;6058;48.704;9.474;2024-01-27T15:53:39;4.60;;;2.17;;
11996;SDS011;6058;48.704;9.474;2024-01-27T15:56:06;12.87;;;5.50;;
11996;SDS011;6058;48.704;9.474;2024-01-27T15:58:33;20.20;;;7.33;;
11996;SDS011;6058;48.704;9.474;2024-01-27T16:01:02;12.17;;;6.27;;
11996;SDS011;6058;48.704;9.474;2024-01-27T16:03:29;12.40;;;4.70;;
11996;SDS011;6058;48.704;9.474;2024-01-27T16:05:56;8.17;;;3.17;;
11996;SDS011;6058;48.704;9.474;2024-01-27T16:08:23;7.07;;;3.03;;
11996;SDS011;6058;48.704;9.474;2024-01-27T16:10:50;4.07;;;2.83;;
11996;SDS011;6058;48.704;9.474;2024-01-27T16:13:18;4.47;;;1.87;;